Time;durP1;ratioP1;P1;durP2;ratioP2;P2;SDS_P1;SDS_P2;PMS_P1;PMS_P2;Temp;Humidity;BMP_temperature;BMP_pressure;BME280_temperature;BME280_humidity;BME280_pressure;Samples;Min_cycle;Max_cycle;Signal;HPM_P1;HPM_P2
2022/10/30 00:00:25;;;;;;;8.48;4.43;;;15.00;99.90;;;;;;4982722;28;20351;-79
2022/10/30 00:02:52;;;;;;;8.80;4.53;;;15.00;99.90;;;;;;4996034;28;20022;-80
2022/10/30 00:05:19;;;;;;;8.75;4.53;;;14.90;99.90;;;;;;4996244;28;20521;-79
2022/10/30 00:07:47;;;;;;;6.25;4.07;;;14.90;99.90;;;;;;4983718;28;20062;-80
2022/10/30 00:10:13;;;;;;;6.38;4.10;;;14.80;99.90;;;;;;4996763;28;20058;-79
2022/10/30 00:12:40;;;;;;;7.95;4.90;;;14.80;99.90;;;;;;4980481;28;20030;-80
2022/10/30 00:15:06;;;;;;;7.20;4.10;;;14.70;99.90;;;;;;4982150;28;20030;-79
2022/10/30 00:17:35;;;;;;;7.68;4.07;;;14.70;99.90;;;;;;5013516;28;20057;-80
2022/10/30 00:20:01;;;;;;;9.07;4.78;;;14.70;99.90;;;;;;5003394;28;20034;-81
2022/10/30 00:22:28;;;;;;;7.32;4.18;;;14.60;99.90;;;;;;4997181;28;20466;-79
2022/10/30 00:24:54;;;;;;;10.80;4.80;;;14.60;99.90;;;;;;4989402;28;20026;-79
2022/10/30 00:27:21;;;;;;;9.35;4.72;;;14.50;99.90;;;;;;4985675;28;20029;-79
2022/10/30 00:29:47;;;;;;;8.20;4.25;;;14.50;99.90;;;;;;4980190;28;20023;-80
2022/10/30 00:32:13;;;;;;;7.47;4.80;;;14.50;99.90;;;;;;4979642;28;20033;-80
2022/10/30 00:34:39;;;;;;;9.95;4.47;;;14.40;99.90;;;;;;4979102;28;20053;-79
2022/10/30 00:37:05;;;;;;;8.02;4.65;;;14.40;99.90;;;;;;4970192;28;20033;-78
2022/10/30 00:39:31;;;;;;;8.68;4.80;;;14.30;99.90;;;;;;4989557;28;20462;-79
2022/10/30 00:41:57;;;;;;;8.98;4.80;;;14.30;99.90;;;;;;5002403;28;20038;-79
2022/10/30 00:44:44;;;;;;;7.88;4.68;;;14.20;99.90;;;;;;4994277;28;20053;-79
2022/10/30 00:47:22;;;;;;;7.20;4.35;;;14.20;99.90;;;;;;4983594;28;20033;-79
2022/10/30 00:49:51;;;;;;;7.22;4.47;;;14.20;99.90;;;;;;4985178;28;20033;-81
2022/10/30 00:52:18;;;;;;;6.93;4.57;;;14.10;99.90;;;;;;4990943;28;20024;-79
2022/10/30 00:54:44;;;;;;;9.35;4.95;;;14.10;99.90;;;;;;4979639;28;20038;-80
2022/10/30 00:57:09;;;;;;;11.27;4.82;;;14.20;99.90;;;;;;4980827;28;20050;-79
2022/10/30 00:59:36;;;;;;;7.85;4.78;;;14.10;99.90;;;;;;4985054;28;20099;-80
2022/10/30 01:02:04;;;;;;;8.48;4.78;;;14.10;99.90;;;;;;4981204;28;20418;-79
2022/10/30 01:04:32;;;;;;;9.13;5.20;;;14.00;99.90;;;;;;4981843;28;20065;-79
2022/10/30 01:07:05;;;;;;;7.82;4.82;;;14.00;99.90;;;;;;4995081;28;20030;-79
2022/10/30 01:09:31;;;;;;;11.20;4.37;;;13.90;99.90;;;;;;4988252;28;20478;-79
2022/10/30 01:11:57;;;;;;;8.73;4.60;;;13.90;99.90;;;;;;4984107;28;20065;-79
2022/10/30 01:14:23;;;;;;;6.95;4.32;;;13.80;99.90;;;;;;4976653;28;20088;-79
2022/10/30 01:17:07;;;;;;;8.98;4.70;;;13.90;99.90;;;;;;4989068;28;20034;-79
2022/10/30 01:20:07;;;;;;;7.78;4.55;;;13.80;99.90;;;;;;4999367;28;20030;-79
2022/10/30 01:23:23;;;;;;;9.65;4.28;;;13.80;99.90;;;;;;4979838;28;20080;-79
2022/10/30 01:26:01;;;;;;;8.13;4.45;;;13.70;99.90;;;;;;4894623;29;20033;-79
2022/10/30 01:28:55;;;;;;;7.28;5.15;;;13.70;99.90;;;;;;4975596;28;20114;-79
2022/10/30 01:31:33;;;;;;;9.52;4.80;;;13.60;99.90;;;;;;4976357;28;20029;-78
2022/10/30 01:34:48;;;;;;;8.65;4.47;;;13.60;99.90;;;;;;4987011;28;20492;-79
2022/10/30 01:38:01;;;;;;;7.82;4.40;;;13.60;99.90;;;;;;4909139;29;20401;-78
2022/10/30 01:40:27;;;;;;;6.85;3.88;;;13.50;99.90;;;;;;4953189;28;20402;-79
2022/10/30 01:42:54;;;;;;;7.68;4.55;;;13.50;99.90;;;;;;4994714;28;20023;-78
2022/10/30 01:45:26;;;;;;;6.65;4.20;;;13.50;99.90;;;;;;5001397;28;20023;-79
2022/10/30 01:48:30;;;;;;;9.60;4.45;;;13.50;99.90;;;;;;4979187;28;20027;-80
2022/10/30 01:51:08;;;;;;;9.20;4.50;;;13.50;99.90;;;;;;4989343;28;20049;-78
2022/10/30 01:53:52;;;;;;;8.20;4.35;;;13.40;99.90;;;;;;4998910;28;20058;-79
2022/10/30 01:56:20;;;;;;;8.63;4.60;;;13.40;99.90;;;;;;4979967;28;20533;-79
2022/10/30 01:59:01;;;;;;;8.32;5.22;;;13.40;99.90;;;;;;4977296;28;20018;-80
2022/10/30 02:01:30;;;;;;;7.68;4.43;;;13.40;99.90;;;;;;4994452;28;20027;-79
2022/10/30 02:03:56;;;;;;;8.68;4.45;;;13.30;99.90;;;;;;4994669;28;20113;-79
2022/10/30 02:06:21;;;;;;;6.68;4.13;;;13.30;99.90;;;;;;4979295;28;20041;-77
2022/10/30 02:08:47;;;;;;;8.55;5.13;;;13.30;99.90;;;;;;5007226;28;20046;-80
2022/10/30 02:11:14;;;;;;;10.10;4.70;;;13.30;99.90;;;;;;5007879;28;20034;-79
2022/10/30 02:13:40;;;;;;;6.85;3.90;;;13.30;99.90;;;;;;5001747;28;20022;-79
2022/10/30 02:16:07;;;;;;;7.00;4.60;;;13.30;99.90;;;;;;4966881;28;20506;-79
2022/10/30 02:18:33;;;;;;;7.90;5.05;;;13.30;99.90;;;;;;4977482;28;20067;-79
2022/10/30 02:20:58;;;;;;;7.60;4.75;;;13.20;99.90;;;;;;4978571;28;20018;-79
2022/10/30 02:23:24;;;;;;;7.97;4.75;;;13.20;99.90;;;;;;4977664;28;20585;-78
2022/10/30 02:25:50;;;;;;;9.00;5.25;;;13.20;99.90;;;;;;4977754;28;20035;-79
2022/10/30 02:28:15;;;;;;;8.25;4.80;;;13.10;99.90;;;;;;4977482;28;20033;-79
2022/10/30 02:30:42;;;;;;;5.70;4.07;;;13.20;99.90;;;;;;4995507;28;20023;-79
2022/10/30 02:33:09;;;;;;;10.65;5.30;;;13.10;99.90;;;;;;4994967;28;20022;-79
2022/10/30 02:35:34;;;;;;;7.15;4.85;;;13.10;99.90;;;;;;4976769;28;20117;-79
2022/10/30 02:38:01;;;;;;;7.15;4.63;;;13.10;99.90;;;;;;4994254;28;20078;-79
2022/10/30 02:40:27;;;;;;;7.70;4.35;;;13.10;99.90;;;;;;4994499;28;20030;-79
2022/10/30 02:42:54;;;;;;;7.18;4.70;;;13.10;99.90;;;;;;4976742;28;20018;-79
2022/10/30 02:45:20;;;;;;;7.50;5.22;;;13.10;99.90;;;;;;4976724;28;20060;-79
2022/10/30 02:47:45;;;;;;;8.75;5.18;;;13.10;99.90;;;;;;4976714;28;20112;-79
2022/10/30 02:50:12;;;;;;;9.77;5.18;;;13.00;99.90;;;;;;4975928;28;20039;-79
2022/10/30 02:52:37;;;;;;;9.60;5.80;;;13.00;99.90;;;;;;4964777;28;20045;-80
2022/10/30 02:55:04;;;;;;;9.02;5.20;;;13.00;99.90;;;;;;5004384;28;20030;-79
2022/10/30 02:57:29;;;;;;;10.85;5.45;;;13.00;99.90;;;;;;4976357;28;20054;-79
2022/10/30 02:59:56;;;;;;;7.50;4.80;;;13.00;99.90;;;;;;4976822;28;20022;-79
2022/10/30 03:02:22;;;;;;;7.35;4.65;;;13.00;99.90;;;;;;4976589;28;20023;-79
2022/10/30 03:04:48;;;;;;;7.95;4.55;;;13.00;99.90;;;;;;4976549;28;20121;-79
2022/10/30 03:07:14;;;;;;;8.10;4.90;;;13.00;99.90;;;;;;4993633;28;20026;-79
2022/10/30 03:09:40;;;;;;;9.90;4.82;;;13.00;99.90;;;;;;4976770;28;20038;-79
2022/10/30 03:12:06;;;;;;;8.00;5.13;;;12.90;99.90;;;;;;4960438;28;20018;-79
2022/10/30 03:14:32;;;;;;;8.13;5.05;;;12.90;99.90;;;;;;4993508;28;20034;-80
2022/10/30 03:16:57;;;;;;;9.15;4.85;;;12.90;99.90;;;;;;4963031;28;20050;-79
2022/10/30 03:19:23;;;;;;;9.73;5.28;;;12.80;99.90;;;;;;4976037;28;20038;-81
2022/10/30 03:21:49;;;;;;;9.00;5.25;;;12.80;99.90;;;;;;4976489;28;20026;-79
2022/10/30 03:24:15;;;;;;;9.48;4.75;;;12.80;99.90;;;;;;4960167;28;20442;-79
2022/10/30 03:26:41;;;;;;;8.68;5.22;;;12.80;99.90;;;;;;4993782;28;20084;-79
2022/10/30 03:29:06;;;;;;;7.93;5.25;;;12.70;99.90;;;;;;4976359;28;20026;-79
2022/10/30 03:31:32;;;;;;;7.07;4.65;;;12.70;99.90;;;;;;4976211;28;20026;-79
2022/10/30 03:33:58;;;;;;;9.75;4.82;;;12.70;99.90;;;;;;4976200;28;20491;-81
2022/10/30 03:36:25;;;;;;;7.93;4.32;;;12.70;99.90;;;;;;4976066;28;20030;-79
2022/10/30 03:38:50;;;;;;;6.40;4.20;;;12.70;99.90;;;;;;4978957;28;20050;-79
2022/10/30 03:41:16;;;;;;;6.20;4.32;;;12.70;99.90;;;;;;4996714;28;20466;-79
2022/10/30 03:43:42;;;;;;;9.05;4.68;;;12.70;99.90;;;;;;4977253;28;20037;-80
2022/10/30 03:46:09;;;;;;;9.82;4.63;;;12.70;99.90;;;;;;4975475;28;20110;-79
2022/10/30 03:48:35;;;;;;;9.85;4.70;;;12.70;99.90;;;;;;4979626;28;20027;-79
2022/10/30 03:51:01;;;;;;;7.55;4.47;;;12.70;99.90;;;;;;4980190;28;20081;-79
2022/10/30 03:53:28;;;;;;;8.25;4.97;;;12.70;99.90;;;;;;4996132;28;20022;-80
2022/10/30 03:56:01;;;;;;;7.15;4.72;;;12.60;99.90;;;;;;4997631;28;20030;-79
2022/10/30 03:58:28;;;;;;;6.65;4.40;;;12.60;99.90;;;;;;5000957;28;20046;-79
2022/10/30 04:01:00;;;;;;;6.30;4.15;;;12.60;99.90;;;;;;5002214;28;20009;-80
2022/10/30 04:03:25;;;;;;;7.30;4.95;;;12.60;99.90;;;;;;5007677;28;20402;-79
2022/10/30 04:05:52;;;;;;;10.82;4.57;;;12.60;99.90;;;;;;4981543;28;20038;-79
2022/10/30 04:08:19;;;;;;;7.63;4.82;;;12.60;99.90;;;;;;4986778;28;20022;-79
2022/10/30 04:10:45;;;;;;;8.63;5.20;;;12.60;99.90;;;;;;4981428;28;20099;-79
2022/10/30 04:13:14;;;;;;;7.97;4.65;;;12.60;99.90;;;;;;4981156;28;20014;-79
2022/10/30 04:15:40;;;;;;;7.30;4.95;;;12.60;99.90;;;;;;4979813;28;20093;-79
2022/10/30 04:18:06;;;;;;;6.60;4.18;;;12.60;99.90;;;;;;4998115;28;20022;-79
2022/10/30 04:20:35;;;;;;;9.75;5.13;;;12.60;99.90;;;;;;4997647;28;20061;-78
2022/10/30 04:23:03;;;;;;;7.38;4.53;;;12.60;99.90;;;;;;4979222;28;20049;-78
2022/10/30 04:25:30;;;;;;;9.43;4.68;;;12.60;99.90;;;;;;4967639;28;20042;-79
2022/10/30 04:27:55;;;;;;;8.93;4.85;;;12.60;99.90;;;;;;4979543;28;20125;-79
2022/10/30 04:30:23;;;;;;;8.13;5.20;;;12.60;99.90;;;;;;4963274;28;20121;-80
2022/10/30 04:32:51;;;;;;;6.35;4.57;;;12.50;99.90;;;;;;4996414;28;20018;-79
2022/10/30 04:35:19;;;;;;;7.05;4.55;;;12.50;99.90;;;;;;4979465;28;20049;-80
2022/10/30 04:37:53;;;;;;;7.70;4.60;;;12.50;99.90;;;;;;4979239;28;20405;-80
2022/10/30 04:40:19;;;;;;;8.85;4.80;;;12.50;99.90;;;;;;4996542;28;20033;-79
2022/10/30 04:42:47;;;;;;;6.65;4.68;;;12.50;99.90;;;;;;4996392;28;20026;-79
2022/10/30 04:45:13;;;;;;;7.10;4.53;;;12.40;99.90;;;;;;4996093;28;20553;-79
2022/10/30 04:47:39;;;;;;;8.25;4.70;;;12.40;99.90;;;;;;4978897;28;20030;-79
2022/10/30 04:50:05;;;;;;;7.53;4.80;;;12.40;99.90;;;;;;4977579;28;20083;-79
2022/10/30 04:52:31;;;;;;;8.85;4.72;;;12.40;99.90;;;;;;4977328;28;20037;-79
2022/10/30 04:54:56;;;;;;;6.53;4.00;;;12.40;99.90;;;;;;4978765;28;20120;-79
2022/10/30 04:57:22;;;;;;;6.95;4.70;;;12.30;99.90;;;;;;4978528;28;20070;-79
2022/10/30 04:59:48;;;;;;;8.95;4.97;;;12.30;99.90;;;;;;4978852;28;20039;-79
2022/10/30 05:02:14;;;;;;;9.38;5.10;;;12.30;99.90;;;;;;4978429;28;20391;-79
2022/10/30 05:04:40;;;;;;;7.90;4.70;;;12.30;99.90;;;;;;4978884;28;20030;-79
2022/10/30 05:07:06;;;;;;;8.13;5.13;;;12.30;99.90;;;;;;4983283;28;20034;-79
2022/10/30 05:09:32;;;;;;;6.38;4.45;;;12.30;99.90;;;;;;4990235;28;20022;-78
2022/10/30 05:11:58;;;;;;;7.68;4.82;;;12.30;99.90;;;;;;4995646;28;20478;-79
2022/10/30 05:14:27;;;;;;;7.07;5.32;;;12.30;99.90;;;;;;4978517;28;20034;-79
2022/10/30 05:16:53;;;;;;;7.90;4.55;;;12.30;99.90;;;;;;4995433;28;20105;-80
2022/10/30 05:19:20;;;;;;;7.47;4.68;;;12.30;99.90;;;;;;4996048;28;20026;-79
2022/10/30 05:21:46;;;;;;;8.25;4.55;;;12.30;99.90;;;;;;4978338;28;20031;-79
2022/10/30 05:24:11;;;;;;;7.72;4.88;;;12.30;99.90;;;;;;4995677;28;20034;-79
2022/10/30 05:26:37;;;;;;;8.85;4.90;;;12.30;99.90;;;;;;4995560;28;20027;-78
2022/10/30 05:29:04;;;;;;;7.95;4.72;;;12.20;99.90;;;;;;4995474;28;20034;-79
2022/10/30 05:31:29;;;;;;;7.05;4.60;;;12.20;99.90;;;;;;4978250;28;20049;-79
2022/10/30 05:33:56;;;;;;;10.25;5.30;;;12.20;99.90;;;;;;4977835;28;20478;-79
2022/10/30 05:36:21;;;;;;;8.43;5.00;;;12.20;99.90;;;;;;4977751;28;20026;-79
2022/10/30 05:38:47;;;;;;;9.43;5.32;;;12.20;99.90;;;;;;4978030;28;20029;-79
2022/10/30 05:41:13;;;;;;;6.93;4.75;;;12.20;99.90;;;;;;4977758;28;20057;-79
2022/10/30 05:43:41;;;;;;;8.80;5.03;;;12.20;99.90;;;;;;4995228;28;20053;-79
2022/10/30 05:46:18;;;;;;;6.80;4.40;;;12.10;99.90;;;;;;4978668;28;20032;-79
2022/10/30 05:48:44;;;;;;;5.72;4.07;;;12.10;99.90;;;;;;5002378;28;20030;-77
2022/10/30 05:51:10;;;;;;;6.63;4.90;;;12.10;99.90;;;;;;5001185;28;20010;-80
2022/10/30 05:53:36;;;;;;;8.25;4.68;;;12.10;99.90;;;;;;5010113;28;20038;-80
2022/10/30 05:56:02;;;;;;;8.23;5.00;;;12.10;99.90;;;;;;4979598;28;20030;-79
2022/10/30 05:58:29;;;;;;;7.05;4.93;;;12.10;99.90;;;;;;4997214;28;20113;-79
2022/10/30 06:00:55;;;;;;;8.52;4.82;;;12.00;99.90;;;;;;4978775;28;20045;-79
2022/10/30 06:03:21;;;;;;;9.13;5.05;;;12.00;99.90;;;;;;4978815;28;20037;-79
2022/10/30 06:05:48;;;;;;;8.95;5.30;;;12.00;99.90;;;;;;4978238;28;20022;-78
2022/10/30 06:08:15;;;;;;;7.50;5.10;;;12.00;99.90;;;;;;4996070;28;20027;-79
2022/10/30 06:10:42;;;;;;;7.32;4.80;;;11.90;99.90;;;;;;4977710;28;20081;-79
2022/10/30 06:13:09;;;;;;;7.80;5.07;;;11.90;99.90;;;;;;4978160;28;20493;-79
2022/10/30 06:15:35;;;;;;;8.60;4.85;;;11.90;99.90;;;;;;4994426;28;20030;-78
2022/10/30 06:18:01;;;;;;;9.35;5.35;;;11.90;99.90;;;;;;4994866;28;20037;-79
2022/10/30 06:20:28;;;;;;;10.95;5.00;;;11.90;99.90;;;;;;4977052;28;20019;-79
2022/10/30 06:23:03;;;;;;;7.13;4.82;;;11.80;99.90;;;;;;4977384;28;20462;-79
2022/10/30 06:25:32;;;;;;;8.30;5.10;;;11.80;99.90;;;;;;4965147;28;20540;-79
2022/10/30 06:27:58;;;;;;;7.10;5.03;;;11.80;99.90;;;;;;4976828;28;20031;-79
2022/10/30 06:30:25;;;;;;;8.15;4.57;;;11.80;99.90;;;;;;4994174;28;20047;-79
2022/10/30 06:33:03;;;;;;;7.05;4.57;;;11.80;99.90;;;;;;4976560;28;20105;-80
2022/10/30 06:35:33;;;;;;;8.50;5.03;;;11.80;99.90;;;;;;4976592;28;20462;-79
2022/10/30 06:37:59;;;;;;;8.30;5.20;;;11.80;99.90;;;;;;4957044;28;20185;-78
2022/10/30 06:40:26;;;;;;;8.93;4.80;;;11.80;99.90;;;;;;4967565;28;20033;-79
2022/10/30 06:42:54;;;;;;;7.75;5.40;;;11.80;99.90;;;;;;4976661;28;20019;-79
2022/10/30 06:45:22;;;;;;;7.78;5.15;;;11.80;99.90;;;;;;4977036;28;20026;-79
2022/10/30 06:47:49;;;;;;;8.05;5.00;;;11.70;99.90;;;;;;4976571;28;20560;-79
2022/10/30 06:50:17;;;;;;;8.25;4.97;;;11.70;99.90;;;;;;4976600;28;20025;-79
2022/10/30 06:52:43;;;;;;;8.32;5.35;;;11.80;99.90;;;;;;4992808;28;20454;-79
2022/10/30 06:55:10;;;;;;;9.55;5.07;;;11.80;99.90;;;;;;4976507;28;20041;-79
2022/10/30 06:57:37;;;;;;;8.75;5.28;;;11.80;99.90;;;;;;4993347;28;20094;-79
2022/10/30 07:00:05;;;;;;;8.25;5.28;;;11.80;99.90;;;;;;4976999;28;20027;-79
2022/10/30 07:02:31;;;;;;;8.25;4.80;;;11.80;99.90;;;;;;4992212;28;20022;-79
2022/10/30 07:04:57;;;;;;;10.52;5.28;;;11.80;99.90;;;;;;4959512;28;20038;-79
2022/10/30 07:07:23;;;;;;;9.02;5.22;;;11.90;99.90;;;;;;4974956;28;20049;-79
2022/10/30 07:09:49;;;;;;;8.55;5.47;;;11.90;99.90;;;;;;4977532;28;20351;-80
2022/10/30 07:12:15;;;;;;;12.20;5.57;;;11.90;99.90;;;;;;4987768;28;20034;-80
2022/10/30 07:14:42;;;;;;;10.60;5.50;;;11.90;99.90;;;;;;4992375;28;20039;-80
2022/10/30 07:17:08;;;;;;;8.05;5.00;;;12.00;99.90;;;;;;4958786;28;20045;-80
2022/10/30 07:19:34;;;;;;;8.32;5.28;;;12.00;99.90;;;;;;4975727;28;20030;-80
2022/10/30 07:22:01;;;;;;;9.95;5.65;;;12.00;99.90;;;;;;4983945;28;20038;-80
2022/10/30 07:24:27;;;;;;;6.97;4.63;;;12.10;99.90;;;;;;5001158;28;20494;-80
2022/10/30 07:26:57;;;;;;;7.43;5.13;;;12.10;99.90;;;;;;4994754;28;20027;-81
2022/10/30 07:29:23;;;;;;;9.35;5.20;;;12.20;99.90;;;;;;4995105;28;20116;-80
2022/10/30 07:31:49;;;;;;;8.95;5.70;;;12.20;99.90;;;;;;4977301;28;20101;-80
2022/10/30 07:34:16;;;;;;;10.45;5.57;;;12.20;99.90;;;;;;4982768;28;20023;-80
2022/10/30 07:36:42;;;;;;;7.65;5.55;;;12.30;99.90;;;;;;4974711;28;20495;-80
2022/10/30 07:39:08;;;;;;;9.40;5.82;;;12.30;99.90;;;;;;4975922;28;20023;-80
2022/10/30 07:42:19;;;;;;;7.60;5.18;;;12.30;99.90;;;;;;5009263;28;20370;-80
2022/10/30 07:44:45;;;;;;;8.40;5.40;;;12.40;99.90;;;;;;4995703;28;20042;-79
2022/10/30 07:47:10;;;;;;;8.20;5.38;;;12.50;99.90;;;;;;4998563;28;20066;-79
2022/10/30 07:49:36;;;;;;;9.55;5.00;;;12.50;99.90;;;;;;4989718;28;20034;-79
2022/10/30 07:52:04;;;;;;;7.93;5.13;;;12.60;99.90;;;;;;4978359;28;20407;-79
2022/10/30 07:54:30;;;;;;;10.27;5.45;;;12.70;99.90;;;;;;4995567;28;20054;-79
2022/10/30 07:56:57;;;;;;;8.80;5.40;;;12.70;99.90;;;;;;4975167;28;20054;-79
2022/10/30 07:59:24;;;;;;;9.32;5.15;;;12.80;99.90;;;;;;4976142;28;20472;-79
2022/10/30 08:01:50;;;;;;;8.00;5.60;;;12.80;99.90;;;;;;4994018;28;20049;-78
2022/10/30 08:04:17;;;;;;;8.93;5.65;;;12.90;99.90;;;;;;4974497;28;20023;-79
2022/10/30 08:06:44;;;;;;;7.72;5.57;;;12.90;99.90;;;;;;4958993;28;20029;-79
2022/10/30 08:09:11;;;;;;;9.43;5.88;;;13.00;99.90;;;;;;4975153;28;20053;-78
2022/10/30 08:11:37;;;;;;;8.85;6.07;;;13.10;99.90;;;;;;4976135;28;20041;-79
2022/10/30 08:14:03;;;;;;;9.82;5.43;;;13.20;99.90;;;;;;4995377;28;20026;-80
2022/10/30 08:16:29;;;;;;;11.38;6.50;;;13.40;99.90;;;;;;4988390;28;21269;-78
2022/10/30 08:18:55;;;;;;;7.75;5.22;;;13.40;99.90;;;;;;4975583;28;20104;-79
2022/10/30 08:21:21;;;;;;;9.52;5.85;;;13.60;99.90;;;;;;4995475;28;20518;-80
2022/10/30 08:23:47;;;;;;;9.77;6.07;;;13.70;99.90;;;;;;4973648;28;20128;-79
2022/10/30 08:26:13;;;;;;;9.93;6.38;;;13.80;99.90;;;;;;4982134;28;20026;-80
2022/10/30 08:28:40;;;;;;;9.00;6.00;;;13.90;99.90;;;;;;4997429;28;20026;-80
2022/10/30 08:31:05;;;;;;;10.95;6.20;;;14.00;99.90;;;;;;4999269;28;20060;-80
2022/10/30 08:33:31;;;;;;;9.25;6.18;;;14.20;99.90;;;;;;4979230;28;20113;-79
2022/10/30 08:35:58;;;;;;;10.52;6.15;;;14.30;99.90;;;;;;5001399;28;20030;-80
2022/10/30 08:38:25;;;;;;;9.32;6.38;;;14.40;99.90;;;;;;4978860;28;20033;-80
2022/10/30 08:40:52;;;;;;;11.90;6.57;;;14.50;99.90;;;;;;4979862;28;20081;-80
2022/10/30 08:43:18;;;;;;;9.13;6.05;;;14.60;99.90;;;;;;4980290;28;20018;-79
2022/10/30 08:45:44;;;;;;;9.63;6.20;;;14.80;99.90;;;;;;4984597;28;20097;-79
2022/10/30 08:48:11;;;;;;;10.93;6.47;;;15.00;99.90;;;;;;4978466;28;20063;-79
2022/10/30 08:50:37;;;;;;;10.00;6.88;;;15.10;99.90;;;;;;4979337;28;20471;-80
2022/10/30 08:53:06;;;;;;;9.35;6.75;;;15.30;99.90;;;;;;4961301;28;20069;-79
2022/10/30 08:55:33;;;;;;;9.75;6.95;;;15.60;99.90;;;;;;4982153;28;20478;-79
2022/10/30 08:57:59;;;;;;;11.25;6.88;;;16.20;99.90;;;;;;4978059;28;20079;-79
2022/10/30 09:00:26;;;;;;;9.30;6.15;;;16.90;99.90;;;;;;4995877;28;20187;-80
2022/10/30 09:02:52;;;;;;;10.80;6.63;;;17.80;99.90;;;;;;4995573;28;20064;-80
2022/10/30 09:05:18;;;;;;;13.20;6.95;;;18.60;99.90;;;;;;4978726;28;20049;-80
2022/10/30 09:07:45;;;;;;;8.95;6.53;;;19.50;99.90;;;;;;4985374;28;20415;-80
2022/10/30 09:10:14;;;;;;;8.85;5.78;;;20.30;99.90;;;;;;4981430;28;20021;-80
2022/10/30 09:12:40;;;;;;;8.20;5.97;;;20.80;99.90;;;;;;4970737;28;20030;-80
2022/10/30 09:15:07;;;;;;;11.60;5.18;;;21.40;99.90;;;;;;4975637;28;20088;-80
2022/10/30 09:17:33;;;;;;;10.90;5.53;;;21.90;99.90;;;;;;4978319;28;20027;-80
2022/10/30 09:20:01;;;;;;;9.48;5.40;;;22.60;99.90;;;;;;4992564;28;20033;-80
2022/10/30 09:22:27;;;;;;;9.73;5.93;;;23.30;99.90;;;;;;4979037;28;20022;-80
2022/10/30 09:24:52;;;;;;;9.65;5.15;;;24.00;99.90;;;;;;4979963;28;20037;-80
2022/10/30 09:27:18;;;;;;;8.35;5.00;;;24.60;99.90;;;;;;4975339;28;20030;-80
2022/10/30 09:29:44;;;;;;;11.20;5.40;;;25.10;99.90;;;;;;4962795;28;20129;-80
2022/10/30 09:32:10;;;;;;;10.00;5.00;;;25.40;99.90;;;;;;4977646;28;20574;-80
2022/10/30 09:34:39;;;;;;;7.40;4.65;;;25.70;99.90;;;;;;4996361;28;20030;-80
2022/10/30 09:37:07;;;;;;;10.93;5.28;;;26.10;99.90;;;;;;4984262;28;20018;-80
2022/10/30 09:39:33;;;;;;;7.90;4.47;;;26.30;99.90;;;;;;5004821;28;20023;-80
2022/10/30 09:42:40;;;;;;;7.93;5.15;;;26.50;99.90;;;;;;5003169;28;20061;-81
2022/10/30 09:45:24;;;;;;;9.00;4.55;;;26.80;99.90;;;;;;5007752;28;20085;-80
2022/10/30 09:48:02;;;;;;;10.52;5.47;;;27.00;99.90;;;;;;4976331;28;20030;-80
2022/10/30 09:50:41;;;;;;;9.02;5.53;;;27.10;99.90;;;;;;4978591;28;20126;-80
2022/10/30 09:53:19;;;;;;;10.30;5.15;;;27.30;99.90;;;;;;4980875;28;20084;-80
2022/10/30 09:56:14;;;;;;;9.52;5.00;;;27.60;99.90;;;;;;4993748;28;20034;-80
2022/10/30 09:58:52;;;;;;;11.38;5.60;;;28.00;99.90;;;;;;4977972;28;20452;-79
2022/10/30 10:01:29;;;;;;;9.65;5.20;;;28.00;99.90;;;;;;4995545;28;20030;-79
2022/10/30 10:03:55;;;;;;;8.25;4.57;;;28.00;99.90;;;;;;4979389;28;20029;-79
2022/10/30 10:06:23;;;;;;;10.52;4.65;;;28.10;99.90;;;;;;4984372;28;20026;-79
2022/10/30 10:08:56;;;;;;;10.48;5.25;;;28.30;99.90;;;;;;4992755;28;20066;-79
2022/10/30 10:11:39;;;;;;;;;;;28.00;99.90;;;;;;4995288;28;20065;-80
2022/10/30 10:14:23;;;;;;;10.02;4.82;;;27.10;99.90;;;;;;4979651;28;19996;-79
2022/10/30 10:16:54;;;;;;;9.88;5.43;;;26.20;99.90;;;;;;4976995;28;20038;-80
2022/10/30 10:19:32;;;;;;;7.05;4.40;;;25.90;99.90;;;;;;4979750;28;20025;-79
2022/10/30 10:21:59;;;;;;;10.15;4.82;;;26.30;99.90;;;;;;4977093;28;20442;-79
2022/10/30 10:24:34;;;;;;;8.07;4.45;;;26.70;99.90;;;;;;4994600;28;20057;-79
2022/10/30 10:27:11;;;;;;;11.50;4.82;;;27.00;99.90;;;;;;4978659;28;20023;-79
2022/10/30 10:29:57;;;;;;;8.23;4.47;;;27.50;99.90;;;;;;4973569;28;20026;-80
2022/10/30 10:32:38;;;;;;;9.50;4.65;;;27.80;99.90;;;;;;4972555;28;20027;-80
2022/10/30 10:35:36;;;;;;;8.85;4.63;;;27.80;99.90;;;;;;4961112;28;20035;-79
2022/10/30 10:38:33;;;;;;;7.22;3.97;;;27.00;99.90;;;;;;4988284;28;20046;-79
2022/10/30 10:41:36;;;;;;;7.53;4.30;;;26.20;99.90;;;;;;4972441;28;20065;-79
2022/10/30 10:44:18;;;;;;;11.02;4.72;;;25.50;99.90;;;;;;4982255;28;20479;-81
2022/10/30 10:47:00;;;;;;;10.43;5.38;;;25.20;99.90;;;;;;4997543;28;20038;-80
2022/10/30 10:49:40;;;;;;;8.15;4.95;;;25.30;99.90;;;;;;4981155;28;20040;-80
2022/10/30 10:52:21;;;;;;;6.95;4.13;;;25.80;99.90;;;;;;4964024;28;20780;-80
2022/10/30 10:55:04;;;;;;;6.63;4.45;;;26.10;99.90;;;;;;4969478;28;20034;-80
2022/10/30 10:57:39;;;;;;;7.10;4.78;;;26.60;99.90;;;;;;4987814;28;20050;-81
2022/10/30 11:00:17;;;;;;;7.35;3.70;;;27.20;99.90;;;;;;4991320;28;20030;-81
2022/10/30 11:03:06;;;;;;;9.82;3.78;;;27.60;99.90;;;;;;4993577;28;20022;-81
2022/10/30 11:06:20;;;;;;;6.00;3.72;;;27.90;99.90;;;;;;4990404;28;20026;-82
2022/10/30 11:08:47;;;;;;;6.18;3.25;;;28.40;99.90;;;;;;4955409;28;20034;-81
2022/10/30 11:11:14;;;;;;;9.57;4.00;;;28.90;99.90;;;;;;4978680;28;20525;-81
2022/10/30 11:13:42;;;;;;;6.65;3.97;;;29.30;99.90;;;;;;4974956;28;20089;-82
2022/10/30 11:16:47;;;;;;;7.13;3.80;;;29.60;99.90;;;;;;4977994;28;20283;-82
2022/10/30 11:19:13;;;;;;;7.35;3.95;;;29.80;99.90;;;;;;4959194;28;20073;-81
2022/10/30 11:21:52;;;;;;;5.97;3.70;;;29.70;99.90;;;;;;4975042;28;20031;-81
2022/10/30 11:24:34;;;;;;;6.47;3.33;;;29.60;99.90;;;;;;4973348;28;20065;-82
2022/10/30 11:27:22;;;;;;;6.75;3.85;;;29.50;99.90;;;;;;4976154;28;20033;-81
2022/10/30 11:30:04;;;;;;;7.85;3.70;;;29.30;99.90;;;;;;4980516;28;20259;-81
2022/10/30 11:32:32;;;;;;;8.93;3.70;;;29.00;99.90;;;;;;4987540;28;20357;-82
2022/10/30 11:35:07;;;;;;;8.80;3.38;;;28.80;99.90;;;;;;4989313;28;20042;-82
2022/10/30 11:37:36;;;;;;;6.88;3.60;;;28.80;99.90;;;;;;5005644;28;20090;-82
2022/10/30 11:40:18;;;;;;;6.95;3.53;;;28.80;99.90;;;;;;4996553;28;20038;-81
2022/10/30 11:42:53;;;;;;;5.53;3.22;;;29.10;99.90;;;;;;4998662;28;20133;-81
2022/10/30 11:45:24;;;;;;;6.88;3.47;;;29.20;99.90;;;;;;4992629;28;20037;-82
2022/10/30 11:47:52;;;;;;;6.63;3.70;;;29.30;99.90;;;;;;4994711;28;20033;-81
2022/10/30 11:50:27;;;;;;;7.00;3.70;;;29.50;99.90;;;;;;4992768;28;20034;-81
2022/10/30 11:52:57;;;;;;;6.80;3.50;;;30.00;99.90;;;;;;4993490;28;20030;-82
2022/10/30 11:55:34;;;;;;;7.63;3.63;;;30.40;99.90;;;;;;4978857;28;20030;-82
2022/10/30 11:58:00;;;;;;;6.85;3.20;;;30.50;99.90;;;;;;4977083;28;20482;-82
2022/10/30 12:00:35;;;;;;;6.13;3.10;;;30.40;99.90;;;;;;4982435;28;20096;-82
2022/10/30 12:03:02;;;;;;;8.55;3.60;;;30.30;99.90;;;;;;4984108;28;20078;-81
2022/10/30 12:05:38;;;;;;;6.05;3.30;;;29.90;99.90;;;;;;4982210;28;20040;-80
2022/10/30 12:08:07;;;;;;;9.20;3.88;;;29.50;99.90;;;;;;4972434;28;20045;-81
2022/10/30 12:10:41;;;;;;;6.68;3.30;;;29.10;99.90;;;;;;4991734;28;20034;-81
2022/10/30 12:13:18;;;;;;;5.63;2.85;;;28.60;99.90;;;;;;4992233;28;20030;-81
2022/10/30 12:15:50;;;;;;;5.35;3.30;;;28.20;99.90;;;;;;4970004;28;20378;-81
2022/10/30 12:18:26;;;;;;;6.88;3.65;;;28.00;99.90;;;;;;4979647;28;20466;-81
2022/10/30 12:20:56;;;;;;;5.22;3.38;;;27.90;99.90;;;;;;4976287;28;20041;-81
2022/10/30 12:23:25;;;;;;;6.45;3.33;;;27.80;99.90;;;;;;4983219;28;20046;-80
2022/10/30 12:26:08;;;;;;;7.88;3.45;;;27.70;99.90;;;;;;4977848;28;20034;-80
2022/10/30 12:28:34;;;;;;;4.85;2.90;;;27.70;99.90;;;;;;4996173;28;20049;-80
2022/10/30 12:31:09;;;;;;;7.95;3.00;;;27.70;99.90;;;;;;4974260;28;20022;-81
2022/10/30 12:33:38;;;;;;;7.07;2.88;;;27.80;99.90;;;;;;4975638;28;20064;-81
2022/10/30 12:36:16;;;;;;;9.45;4.00;;;27.70;99.90;;;;;;4981043;28;20022;-82
2022/10/30 12:38:48;;;;;;;6.70;3.20;;;27.50;99.90;;;;;;4978012;28;20030;-81
2022/10/30 12:41:26;;;;;;;4.93;3.03;;;27.30;99.90;;;;;;4976920;28;20026;-82
2022/10/30 12:43:59;;;;;;;5.60;3.10;;;27.10;99.90;;;;;;4976766;28;20290;-81
2022/10/30 12:46:35;;;;;;;9.00;3.25;;;26.90;99.90;;;;;;4976988;28;20044;-81
2022/10/30 12:49:06;;;;;;;8.02;3.47;;;26.70;99.90;;;;;;4968843;28;20023;-81
2022/10/30 12:52:00;;;;;;;8.45;3.30;;;26.30;99.90;;;;;;4966489;28;20037;-81
2022/10/30 12:54:38;;;;;;;6.90;2.83;;;25.80;99.90;;;;;;4972821;28;20263;-81
2022/10/30 12:57:20;;;;;;;7.60;3.90;;;25.20;99.90;;;;;;4965426;28;20081;-82
2022/10/30 13:00:07;;;;;;;6.60;3.22;;;24.70;99.90;;;;;;4966537;28;20138;-81
2022/10/30 13:03:15;;;;;;;5.13;2.65;;;24.30;99.90;;;;;;4978530;28;20027;-81